createdAt,value
2022-10-17T00:01:54.325Z,100.00
2022-10-17T00:04:20.779Z,100.00
2022-10-17T00:06:47.208Z,100.00
2022-10-17T00:09:13.738Z,100.00
2022-10-17T00:11:40.152Z,100.00
2022-10-17T00:14:06.690Z,100.00
2022-10-17T00:16:36.871Z,100.00
2022-10-17T00:19:07.284Z,100.00
2022-10-17T00:21:34.109Z,100.00
2022-10-17T00:24:01.184Z,100.00
2022-10-17T00:26:29.536Z,100.00
2022-10-17T00:28:56.550Z,100.00
2022-10-17T00:31:24.412Z,100.00
2022-10-17T00:33:51.767Z,100.00
2022-10-17T00:36:21.929Z,100.00
2022-10-17T00:38:51.317Z,100.00
2022-10-17T00:41:20.007Z,100.00
2022-10-17T00:43:54.375Z,100.00
2022-10-17T00:46:22.088Z,100.00
2022-10-17T00:48:50.914Z,100.00
2022-10-17T00:51:20.374Z,100.00
2022-10-17T00:53:46.905Z,100.00
2022-10-17T00:56:13.743Z,100.00
2022-10-17T00:58:40.316Z,100.00
2022-10-17T01:01:06.711Z,100.00
2022-10-17T01:03:33.152Z,100.00
2022-10-17T01:05:59.855Z,100.00
2022-10-17T01:08:26.821Z,100.00
2022-10-17T01:11:26.485Z,100.00
2022-10-17T01:14:02.665Z,100.00
2022-10-17T01:17:02.921Z,100.00
2022-10-17T01:20:01.809Z,100.00
2022-10-17T01:22:40.721Z,100.00
2022-10-17T01:25:16.396Z,100.00
2022-10-17T01:27:56.612Z,100.00
2022-10-17T01:31:00.432Z,100.00
2022-10-17T01:33:48.255Z,100.00
2022-10-17T01:36:22.684Z,100.00
2022-10-17T01:38:53.584Z,100.00
2022-10-17T01:41:31.049Z,100.00
2022-10-17T01:44:08.397Z,100.00
2022-10-17T01:46:37.884Z,100.00
2022-10-17T01:49:07.964Z,100.00
2022-10-17T01:51:42.688Z,100.00
2022-10-17T01:54:18.498Z,100.00
2022-10-17T01:56:47.985Z,100.00
2022-10-17T01:59:22.215Z,100.00
2022-10-17T02:01:52.791Z,100.00
2022-10-17T02:04:19.629Z,100.00
2022-10-17T02:06:46.044Z,100.00
2022-10-17T02:09:24.816Z,100.00
2022-10-17T02:12:29.740Z,100.00
2022-10-17T02:15:23.645Z,100.00
2022-10-17T02:17:52.946Z,100.00
2022-10-17T02:20:36.493Z,100.00
2022-10-17T02:23:12.448Z,100.00
2022-10-17T02:25:46.029Z,100.00
2022-10-17T02:28:19.742Z,100.00
2022-10-17T02:30:46.035Z,100.00
2022-10-17T02:33:20.802Z,100.00
2022-10-17T02:35:52.052Z,100.00
2022-10-17T02:38:18.972Z,100.00
2022-10-17T02:40:46.397Z,100.00
2022-10-17T02:43:13.707Z,100.00
2022-10-17T02:45:40.869Z,100.00
2022-10-17T02:48:30.931Z,100.00
2022-10-17T02:51:07.657Z,100.00
2022-10-17T02:53:52.161Z,100.00
2022-10-17T02:56:21.220Z,100.00
2022-10-17T02:58:57.008Z,100.00
2022-10-17T03:01:24.817Z,100.00
2022-10-17T03:03:51.212Z,100.00
2022-10-17T03:06:17.634Z,100.00
2022-10-17T03:08:43.988Z,100.00
2022-10-17T03:11:10.349Z,100.00
2022-10-17T03:13:39.686Z,100.00
2022-10-17T03:16:06.554Z,100.00
2022-10-17T03:18:32.948Z,100.00
2022-10-17T03:20:59.313Z,100.00
2022-10-17T03:23:25.647Z,100.00
2022-10-17T03:25:52.028Z,100.00
2022-10-17T03:28:18.404Z,100.00
2022-10-17T03:30:44.740Z,100.00
2022-10-17T03:33:11.120Z,100.00
2022-10-17T03:35:40.221Z,100.00
2022-10-17T03:38:06.700Z,100.00
2022-10-17T03:40:33.071Z,100.00
2022-10-17T03:42:59.417Z,100.00
2022-10-17T03:45:25.769Z,100.00
2022-10-17T03:47:52.131Z,100.00
2022-10-17T03:50:18.514Z,100.00
2022-10-17T03:52:48.962Z,100.00
2022-10-17T03:55:16.466Z,100.00
2022-10-17T03:57:45.400Z,100.00
2022-10-17T04:00:13.022Z,100.00
2022-10-17T04:02:39.525Z,100.00
2022-10-17T04:05:06.470Z,100.00
2022-10-17T04:07:32.888Z,100.00
2022-10-17T04:09:59.252Z,100.00
2022-10-17T04:12:25.595Z,100.00
2022-10-17T04:14:51.927Z,100.00
2022-10-17T04:17:18.345Z,100.00
2022-10-17T04:19:44.708Z,100.00
2022-10-17T04:22:11.074Z,100.00
2022-10-17T04:24:37.424Z,100.00
2022-10-17T04:27:03.910Z,100.00
2022-10-17T04:29:30.259Z,100.00
2022-10-17T04:31:56.617Z,100.00
2022-10-17T04:34:22.959Z,100.00
2022-10-17T04:36:49.365Z,100.00
2022-10-17T04:39:15.729Z,100.00
2022-10-17T04:41:42.365Z,100.00
2022-10-17T04:44:10.786Z,100.00
2022-10-17T04:46:37.247Z,100.00
2022-10-17T04:49:03.664Z,100.00
2022-10-17T04:51:30.053Z,100.00
2022-10-17T04:53:56.410Z,100.00
2022-10-17T04:56:24.110Z,100.00
2022-10-17T04:58:51.072Z,100.00
2022-10-17T05:01:20.028Z,100.00
2022-10-17T05:03:46.657Z,100.00
2022-10-17T05:06:18.598Z,100.00
2022-10-17T05:08:45.596Z,100.00
2022-10-17T05:11:20.440Z,100.00
2022-10-17T05:13:52.059Z,100.00
2022-10-17T05:16:18.524Z,100.00
2022-10-17T05:18:47.428Z,100.00
2022-10-17T05:21:15.895Z,100.00
2022-10-17T05:23:42.278Z,100.00
2022-10-17T05:26:08.644Z,100.00
2022-10-17T05:28:35.144Z,100.00
2022-10-17T05:31:06.029Z,100.00
2022-10-17T05:33:33.216Z,100.00
2022-10-17T05:35:59.621Z,100.00
2022-10-17T05:38:26.757Z,100.00
2022-10-17T05:41:00.478Z,100.00
2022-10-17T05:43:27.376Z,100.00
2022-10-17T05:45:54.347Z,100.00
2022-10-17T05:48:21.807Z,100.00
2022-10-17T05:50:48.801Z,100.00
2022-10-17T05:53:16.065Z,100.00
2022-10-17T05:55:42.443Z,100.00
2022-10-17T05:58:11.718Z,100.00
2022-10-17T06:00:44.161Z,100.00
2022-10-17T06:03:12.343Z,100.00
2022-10-17T06:05:38.704Z,100.00
2022-10-17T06:08:05.230Z,100.00
2022-10-17T06:10:31.578Z,100.00
2022-10-17T06:12:57.926Z,100.00
2022-10-17T06:15:24.258Z,100.00
2022-10-17T06:17:50.818Z,100.00
2022-10-17T06:20:17.285Z,100.00
2022-10-17T06:22:43.821Z,100.00
2022-10-17T06:25:10.374Z,100.00
2022-10-17T06:27:36.727Z,100.00
2022-10-17T06:30:04.018Z,100.00
2022-10-17T06:32:30.813Z,100.00
2022-10-17T06:34:57.418Z,100.00
2022-10-17T06:37:23.789Z,100.00
2022-10-17T06:39:50.130Z,100.00
2022-10-17T06:42:16.909Z,100.00
2022-10-17T06:44:43.295Z,100.00
2022-10-17T06:47:10.238Z,100.00
2022-10-17T06:49:36.580Z,100.00
2022-10-17T06:52:02.953Z,100.00
2022-10-17T06:54:29.381Z,100.00
2022-10-17T06:56:56.178Z,100.00
2022-10-17T06:59:22.575Z,100.00
2022-10-17T07:01:48.965Z,100.00
2022-10-17T07:04:15.323Z,100.00
2022-10-17T07:06:41.875Z,100.00
2022-10-17T07:09:08.286Z,100.00
2022-10-17T07:11:35.178Z,100.00
2022-10-17T07:14:02.553Z,100.00
2022-10-17T07:16:29.454Z,100.00
2022-10-17T07:18:56.159Z,100.00
2022-10-17T07:21:22.576Z,100.00
2022-10-17T07:23:49.103Z,100.00
2022-10-17T07:26:17.591Z,100.00
2022-10-17T07:28:46.276Z,100.00
2022-10-17T07:31:15.995Z,100.00
2022-10-17T07:33:43.523Z,100.00
2022-10-17T07:36:09.978Z,100.00
2022-10-17T07:38:36.694Z,100.00
2022-10-17T07:41:06.047Z,100.00
2022-10-17T07:43:33.792Z,100.00
2022-10-17T07:46:02.626Z,100.00
2022-10-17T07:48:29.738Z,100.00
2022-10-17T07:50:56.171Z,100.00
2022-10-17T07:53:22.528Z,100.00
2022-10-17T07:55:49.651Z,100.00
2022-10-17T07:58:16.473Z,100.00
2022-10-17T08:00:43.378Z,100.00
2022-10-17T08:03:10.862Z,100.00
2022-10-17T08:05:37.213Z,100.00
2022-10-17T08:08:03.695Z,100.00
2022-10-17T08:10:30.097Z,100.00
2022-10-17T08:12:57.931Z,100.00
2022-10-17T08:15:29.351Z,100.00
2022-10-17T08:17:59.482Z,100.00
2022-10-17T08:20:25.978Z,100.00
2022-10-17T08:22:53.744Z,100.00
2022-10-17T08:25:20.232Z,100.00
2022-10-17T08:27:46.742Z,100.00
2022-10-17T08:30:13.452Z,100.00
2022-10-17T08:32:39.991Z,100.00
2022-10-17T08:35:06.908Z,100.00
2022-10-17T08:37:33.598Z,100.00
2022-10-17T08:40:00.241Z,100.00
2022-10-17T08:42:45.398Z,100.00
2022-10-17T08:45:26.922Z,100.00
2022-10-17T08:47:59.018Z,100.00
2022-10-17T08:50:48.391Z,100.00
2022-10-17T08:53:36.244Z,100.00
2022-10-17T08:59:17.640Z,100.00
2022-10-17T09:02:02.805Z,100.00
2022-10-17T09:04:47.531Z,100.00
2022-10-17T09:07:46.172Z,100.00
2022-10-17T09:10:28.583Z,100.00
2022-10-17T09:13:24.518Z,100.00
2022-10-17T09:16:14.820Z,100.00
2022-10-17T09:18:46.001Z,100.00
2022-10-17T09:21:20.838Z,100.00
2022-10-17T09:24:08.897Z,100.00
2022-10-17T09:26:39.200Z,100.00
2022-10-17T09:29:15.598Z,99.28
2022-10-17T09:34:32.058Z,99.98
2022-10-17T09:37:00.807Z,99.91
2022-10-17T09:39:31.792Z,97.33
2022-10-17T09:41:59.932Z,97.82
2022-10-17T09:44:47.498Z,96.92
2022-10-17T09:47:34.456Z,96.31
2022-10-17T09:50:01.479Z,94.63
2022-10-17T09:52:36.310Z,97.40
2022-10-17T09:55:17.426Z,97.83
2022-10-17T09:58:00.577Z,99.25
2022-10-17T10:00:30.612Z,99.43
2022-10-17T10:03:20.237Z,99.50
2022-10-17T10:06:03.777Z,94.98
2022-10-17T10:08:34.226Z,96.60
2022-10-17T10:11:07.876Z,99.22
2022-10-17T10:13:36.023Z,93.47
2022-10-17T10:16:32.369Z,94.43
2022-10-17T10:18:58.939Z,98.31
2022-10-17T10:21:27.465Z,95.70
2022-10-17T10:23:59.673Z,95.42
2022-10-17T10:26:29.532Z,94.44
2022-10-17T10:29:02.511Z,95.33
2022-10-17T10:31:39.809Z,95.16
2022-10-17T10:34:32.726Z,97.38
2022-10-17T10:37:06.280Z,95.00
2022-10-17T10:39:32.570Z,97.76
2022-10-17T10:42:01.223Z,94.51
2022-10-17T10:44:32.032Z,97.45
2022-10-17T10:47:28.069Z,96.78
2022-10-17T10:50:37.558Z,92.22
2022-10-17T10:53:14.729Z,93.02
2022-10-17T10:55:51.471Z,89.87
2022-10-17T10:58:33.127Z,88.63
2022-10-17T11:01:05.043Z,92.21
2022-10-17T11:06:18.941Z,92.67
2022-10-17T11:09:06.516Z,88.24
2022-10-17T11:11:39.737Z,89.00
2022-10-17T11:14:38.862Z,91.43
2022-10-17T11:17:20.398Z,91.31
2022-10-17T11:19:58.774Z,89.90
2022-10-17T11:22:32.356Z,90.70
2022-10-17T11:25:26.163Z,90.17
2022-10-17T11:27:52.556Z,89.94
2022-10-17T11:30:19.200Z,89.01
2022-10-17T11:32:54.071Z,89.04
2022-10-17T11:35:45.147Z,91.61
2022-10-17T11:38:21.136Z,91.56
2022-10-17T11:40:54.118Z,91.98
2022-10-17T11:43:28.633Z,87.98
2022-10-17T11:45:59.534Z,89.68
2022-10-17T11:48:35.601Z,89.38
2022-10-17T11:54:04.249Z,87.08
2022-10-17T11:57:02.767Z,88.87
2022-10-17T11:59:45.839Z,88.77
2022-10-17T12:02:30.930Z,90.37
2022-10-17T12:05:20.984Z,87.36
2022-10-17T12:07:53.154Z,85.83
2022-10-17T12:10:48.980Z,87.03
2022-10-17T12:13:27.560Z,88.60
2022-10-17T12:16:17.949Z,88.17
2022-10-17T12:18:45.454Z,87.10
2022-10-17T12:21:12.103Z,86.72
2022-10-17T12:23:39.924Z,89.06
2022-10-17T12:26:09.364Z,91.43
2022-10-17T12:28:39.314Z,91.48
2022-10-17T12:31:29.620Z,90.31
2022-10-17T12:34:00.866Z,86.89
2022-10-17T12:36:27.170Z,87.69
2022-10-17T12:39:02.717Z,85.74
2022-10-17T12:41:38.318Z,86.44
2022-10-17T12:44:13.853Z,85.42
2022-10-17T12:46:55.706Z,85.49
2022-10-17T12:49:47.124Z,86.55
2022-10-17T12:52:28.928Z,88.25
2022-10-17T12:55:11.616Z,88.76
2022-10-17T12:57:59.377Z,90.78
2022-10-17T13:00:43.795Z,89.23
2022-10-17T13:03:20.253Z,90.86
2022-10-17T13:05:55.520Z,90.49
2022-10-17T13:08:32.810Z,87.06
2022-10-17T13:11:00.680Z,87.36
2022-10-17T13:13:42.725Z,84.50
2022-10-17T13:16:09.258Z,87.01
2022-10-17T13:18:35.916Z,84.44
2022-10-17T13:21:15.857Z,85.92
2022-10-17T13:23:42.297Z,83.17
2022-10-17T13:26:22.138Z,85.00
2022-10-17T13:29:01.713Z,88.49
2022-10-17T13:31:31.815Z,90.61
2022-10-17T13:34:00.753Z,89.97
2022-10-17T13:36:29.337Z,86.15
2022-10-17T13:38:57.481Z,83.21
2022-10-17T13:41:35.729Z,87.41
2022-10-17T13:44:09.218Z,88.66
2022-10-17T13:46:38.473Z,90.37
2022-10-17T13:49:20.075Z,91.95
2022-10-17T13:51:50.766Z,92.81
2022-10-17T13:54:34.066Z,94.05
2022-10-17T13:57:02.004Z,94.28
2022-10-17T13:59:34.378Z,96.29
2022-10-17T14:02:01.943Z,94.75
2022-10-17T14:04:35.509Z,93.33
2022-10-17T14:07:29.269Z,93.10
2022-10-17T14:09:57.914Z,94.60
2022-10-17T14:12:24.324Z,93.13
2022-10-17T14:15:10.404Z,93.70
2022-10-17T14:17:38.503Z,95.40
2022-10-17T14:20:26.640Z,94.07
2022-10-17T14:23:20.935Z,89.97
2022-10-17T14:25:40.820Z,92.80
2022-10-17T14:28:09.108Z,93.13
2022-10-17T14:30:55.881Z,94.17
2022-10-17T14:33:28.439Z,95.84
2022-10-17T14:35:57.523Z,90.30
2022-10-17T14:38:25.219Z,81.35
2022-10-17T14:41:23.581Z,81.16
2022-10-17T14:44:06.386Z,84.30
2022-10-17T14:46:35.670Z,82.82
2022-10-17T14:49:15.193Z,83.77
2022-10-17T14:52:07.517Z,83.78
2022-10-17T14:54:35.877Z,82.77
2022-10-17T14:57:14.688Z,84.13
2022-10-17T14:59:56.426Z,87.36
2022-10-17T15:02:28.481Z,88.57
2022-10-17T15:04:55.692Z,86.86
2022-10-17T15:07:23.481Z,83.59
2022-10-17T15:09:51.601Z,80.28
2022-10-17T15:12:20.789Z,80.81
2022-10-17T15:14:51.547Z,83.99
2022-10-17T15:17:29.925Z,83.67
2022-10-17T15:19:57.341Z,81.58
2022-10-17T15:22:24.288Z,82.93
2022-10-17T15:24:50.742Z,83.19
2022-10-17T15:27:19.743Z,82.39
2022-10-17T15:29:47.068Z,81.06
2022-10-17T15:32:14.294Z,82.35
2022-10-17T15:34:40.824Z,84.46
2022-10-17T15:37:16.330Z,83.27
2022-10-17T15:39:42.697Z,83.32
2022-10-17T15:42:11.812Z,83.39
2022-10-17T15:44:38.177Z,86.42
2022-10-17T15:47:22.380Z,88.54
2022-10-17T15:49:48.744Z,91.83
2022-10-17T15:52:15.092Z,91.01
2022-10-17T15:54:41.472Z,90.79
2022-10-17T15:57:17.749Z,92.69
2022-10-17T15:59:46.804Z,94.50
2022-10-17T16:02:14.901Z,96.44
2022-10-17T16:04:41.379Z,97.34
2022-10-17T16:07:07.970Z,97.24
2022-10-17T16:09:34.981Z,98.84
2022-10-17T16:12:01.743Z,100.00
2022-10-17T16:14:28.416Z,100.00
2022-10-17T16:16:54.772Z,100.00
2022-10-17T16:19:21.663Z,100.00
2022-10-17T16:21:48.055Z,100.00
2022-10-17T16:24:14.391Z,100.00
2022-10-17T16:26:41.023Z,100.00
2022-10-17T16:29:09.218Z,100.00
2022-10-17T16:31:39.886Z,100.00
2022-10-17T16:34:06.768Z,100.00
2022-10-17T16:36:33.128Z,100.00
2022-10-17T16:38:59.503Z,100.00
2022-10-17T16:41:54.781Z,100.00
2022-10-17T16:44:24.101Z,100.00
2022-10-17T16:46:50.463Z,100.00
2022-10-17T16:49:18.156Z,100.00
2022-10-17T16:51:44.564Z,100.00
2022-10-17T16:54:10.916Z,100.00
2022-10-17T16:56:37.306Z,100.00
2022-10-17T16:59:04.113Z,100.00
2022-10-17T17:01:30.557Z,100.00
2022-10-17T17:03:57.086Z,100.00
2022-10-17T17:06:28.631Z,100.00
2022-10-17T17:08:55.903Z,100.00
2022-10-17T17:11:24.332Z,100.00
2022-10-17T17:13:50.684Z,100.00
2022-10-17T17:16:21.568Z,100.00
2022-10-17T17:18:50.779Z,100.00
2022-10-17T17:21:17.255Z,100.00
2022-10-17T17:23:43.780Z,100.00
2022-10-17T17:26:13.478Z,100.00
2022-10-17T17:28:40.793Z,100.00
2022-10-17T17:31:09.921Z,100.00
2022-10-17T17:33:38.555Z,100.00
2022-10-17T17:36:06.349Z,100.00
2022-10-17T17:38:34.663Z,100.00
2022-10-17T17:41:01.871Z,100.00
2022-10-17T17:43:28.595Z,100.00
2022-10-17T17:45:55.105Z,100.00
2022-10-17T17:48:21.697Z,100.00
2022-10-17T17:50:48.359Z,100.00
2022-10-17T17:53:16.253Z,100.00
2022-10-17T17:55:42.590Z,100.00
2022-10-17T17:58:09.721Z,100.00
2022-10-17T18:00:36.274Z,100.00
2022-10-17T18:03:02.974Z,100.00
2022-10-17T18:05:29.765Z,100.00
2022-10-17T18:07:56.196Z,100.00
2022-10-17T18:10:22.576Z,100.00
2022-10-17T18:12:48.931Z,100.00
2022-10-17T18:15:15.524Z,100.00
2022-10-17T18:17:42.361Z,100.00
2022-10-17T18:20:09.361Z,100.00
2022-10-17T18:22:35.758Z,100.00
2022-10-17T18:25:02.755Z,100.00
2022-10-17T18:27:29.174Z,100.00
2022-10-17T18:29:56.129Z,100.00
2022-10-17T18:32:22.543Z,100.00
2022-10-17T18:34:48.884Z,100.00
2022-10-17T18:37:15.240Z,100.00
2022-10-17T18:39:41.595Z,100.00
2022-10-17T18:42:08.098Z,100.00
2022-10-17T18:44:34.490Z,100.00
2022-10-17T18:47:03.924Z,100.00
2022-10-17T18:49:31.101Z,100.00
2022-10-17T18:51:57.565Z,100.00
2022-10-17T18:54:24.345Z,100.00
2022-10-17T18:56:53.127Z,100.00
2022-10-17T18:59:20.554Z,100.00
2022-10-17T19:01:47.429Z,100.00
2022-10-17T19:04:14.338Z,100.00
2022-10-17T19:06:41.638Z,100.00
2022-10-17T19:09:10.337Z,100.00
2022-10-17T19:11:38.178Z,100.00
2022-10-17T19:14:12.580Z,100.00
2022-10-17T19:16:42.729Z,100.00
2022-10-17T19:19:15.486Z,100.00
2022-10-17T19:21:42.004Z,100.00
2022-10-17T19:24:12.638Z,100.00
2022-10-17T19:26:40.618Z,100.00
2022-10-17T19:29:07.082Z,100.00
2022-10-17T19:31:34.898Z,100.00
2022-10-17T19:34:01.300Z,100.00
2022-10-17T19:36:33.350Z,100.00
2022-10-17T19:39:02.235Z,100.00
2022-10-17T19:41:28.733Z,100.00
2022-10-17T19:43:55.167Z,100.00
2022-10-17T19:46:24.036Z,100.00
2022-10-17T19:48:51.183Z,100.00
2022-10-17T19:51:19.370Z,100.00
2022-10-17T19:53:46.802Z,100.00
2022-10-17T19:56:14.096Z,100.00
2022-10-17T19:58:46.595Z,100.00
2022-10-17T20:01:19.090Z,100.00
2022-10-17T20:03:46.449Z,100.00
2022-10-17T20:06:13.515Z,100.00
2022-10-17T20:08:40.666Z,100.00
2022-10-17T20:11:10.434Z,100.00
2022-10-17T20:13:37.463Z,100.00
2022-10-17T20:16:06.187Z,100.00
2022-10-17T20:18:32.655Z,100.00
2022-10-17T20:21:08.343Z,100.00
2022-10-17T20:23:35.164Z,100.00
2022-10-17T20:26:08.600Z,100.00
2022-10-17T20:28:51.106Z,100.00
2022-10-17T20:31:18.080Z,100.00
2022-10-17T20:33:44.604Z,100.00
2022-10-17T20:36:12.237Z,100.00
2022-10-17T20:38:38.787Z,100.00
2022-10-17T20:41:08.598Z,100.00
2022-10-17T20:43:35.628Z,100.00
2022-10-17T20:46:15.465Z,100.00
2022-10-17T20:48:52.680Z,100.00
2022-10-17T20:51:20.574Z,100.00
2022-10-17T20:53:48.033Z,100.00
2022-10-17T20:56:21.178Z,100.00
2022-10-17T20:58:56.025Z,100.00
2022-10-17T21:01:23.200Z,100.00
2022-10-17T21:03:50.119Z,100.00
2022-10-17T21:06:17.926Z,100.00
2022-10-17T21:08:46.052Z,100.00
2022-10-17T21:11:18.338Z,100.00
2022-10-17T21:13:45.939Z,100.00
2022-10-17T21:16:18.191Z,100.00
2022-10-17T21:18:45.667Z,100.00
2022-10-17T21:21:11.935Z,100.00
2022-10-17T21:23:39.607Z,100.00
2022-10-17T21:26:08.804Z,100.00
2022-10-17T21:28:36.824Z,100.00
2022-10-17T21:31:20.164Z,100.00
2022-10-17T21:33:49.818Z,100.00
2022-10-17T21:36:17.841Z,100.00
2022-10-17T21:38:46.057Z,100.00
2022-10-17T21:41:14.469Z,100.00
2022-10-17T21:43:42.624Z,100.00
2022-10-17T21:46:14.587Z,100.00
2022-10-17T21:48:41.564Z,100.00
2022-10-17T21:51:12.738Z,100.00
2022-10-17T21:53:39.091Z,100.00
2022-10-17T21:56:08.226Z,100.00
2022-10-17T21:58:34.766Z,100.00
2022-10-17T22:01:06.416Z,100.00
2022-10-17T22:03:38.646Z,100.00
2022-10-17T22:06:34.540Z,100.00
2022-10-17T22:08:55.706Z,100.00
2022-10-17T22:11:30.847Z,100.00
2022-10-17T22:13:59.636Z,100.00
2022-10-17T22:16:26.449Z,100.00
2022-10-17T22:18:56.417Z,100.00
2022-10-17T22:21:22.896Z,100.00
2022-10-17T22:23:58.906Z,100.00
2022-10-17T22:26:26.677Z,100.00
2022-10-17T22:28:53.351Z,100.00
2022-10-17T22:31:20.002Z,100.00
2022-10-17T22:33:46.628Z,100.00
2022-10-17T22:36:13.526Z,100.00
2022-10-17T22:38:39.946Z,100.00
2022-10-17T22:41:06.564Z,100.00
2022-10-17T22:43:32.937Z,100.00
2022-10-17T22:46:01.704Z,100.00
2022-10-17T22:48:29.155Z,100.00
2022-10-17T22:50:57.283Z,100.00
2022-10-17T22:53:26.170Z,100.00
2022-10-17T22:55:56.817Z,100.00
2022-10-17T22:58:24.091Z,100.00
2022-10-17T23:00:51.884Z,100.00
2022-10-17T23:03:19.394Z,100.00
2022-10-17T23:05:45.768Z,100.00
2022-10-17T23:08:13.471Z,100.00
2022-10-17T23:10:39.878Z,100.00
2022-10-17T23:13:06.715Z,100.00
2022-10-17T23:15:33.955Z,100.00
2022-10-17T23:18:01.271Z,100.00
2022-10-17T23:20:28.981Z,100.00
2022-10-17T23:22:55.542Z,100.00
2022-10-17T23:25:22.495Z,100.00
2022-10-17T23:27:49.069Z,100.00
2022-10-17T23:30:15.627Z,100.00
2022-10-17T23:32:41.997Z,100.00
2022-10-17T23:35:08.827Z,100.00
2022-10-17T23:37:35.819Z,100.00
2022-10-17T23:40:03.435Z,100.00
2022-10-17T23:42:29.858Z,100.00
2022-10-17T23:44:56.211Z,100.00
2022-10-17T23:47:22.598Z,100.00
2022-10-17T23:49:49.016Z,100.00
2022-10-17T23:52:15.653Z,100.00
2022-10-17T23:57:13.289Z,100.00
2022-10-17T23:59:39.640Z,100.00
